Time;durP1;ratioP1;P1;durP2;ratioP2;P2;SDS_P1;SDS_P2;PMS_P1;PMS_P2;Temp;Humidity;BMP_temperature;BMP_pressure;BME280_temperature;BME280_humidity;BME280_pressure;Samples;Min_cycle;Max_cycle;Signal;HPM_P1;HPM_P2
2023/03/11 00:01:15;;;;;;;2.45;2.00;;;;;;;5.46;76.67;96932.81;4105546;28;20307;-78
2023/03/11 00:03:21;;;;;;;2.20;1.80;;;;;;;5.49;76.48;96937.78;4122306;28;20235;-78
2023/03/11 00:05:27;;;;;;;3.65;2.53;;;;;;;5.46;77.49;96931.97;4121796;28;20222;-77
2023/03/11 00:07:30;;;;;;;2.08;1.88;;;;;;;5.49;76.73;96935.19;4127350;28;20235;-78
2023/03/11 00:09:35;;;;;;;1.92;1.60;;;;;;;5.39;76.83;96922.97;4118380;28;20263;-78
2023/03/11 00:11:38;;;;;;;2.20;2.00;;;;;;;5.37;76.23;96930.03;4116081;28;20212;-78
2023/03/11 00:13:41;;;;;;;2.88;1.85;;;;;;;5.36;76.54;96934.34;4120578;28;20208;-78
2023/03/11 00:15:47;;;;;;;2.00;1.80;;;;;;;5.25;76.18;96931.66;4116086;28;20692;-78
2023/03/11 00:17:50;;;;;;;4.22;1.67;;;;;;;5.24;76.72;96939.50;4123048;28;20202;-78
2023/03/11 00:19:54;;;;;;;2.25;1.75;;;;;;;5.23;76.15;96941.25;4135857;28;20299;-78
2023/03/11 00:21:57;;;;;;;3.35;1.80;;;;;;;5.28;76.09;96956.47;4124218;28;20259;-78
2023/03/11 00:24:02;;;;;;;1.88;1.55;;;;;;;5.24;76.55;96948.06;4135528;28;20204;-78
2023/03/11 00:26:06;;;;;;;1.83;1.60;;;;;;;5.22;75.71;96960.28;4134389;28;20207;-77
2023/03/11 00:28:10;;;;;;;3.33;1.35;;;;;;;5.22;74.52;96962.84;4115186;28;20681;-77
2023/03/11 00:30:14;;;;;;;2.05;1.33;;;;;;;5.18;74.36;96966.56;4132111;28;20212;-79
2023/03/11 00:32:17;;;;;;;1.85;1.40;;;;;;;5.16;74.82;96955.50;4118709;28;20634;-79
2023/03/11 00:34:20;;;;;;;2.25;2.05;;;;;;;5.14;75.19;96959.09;4136137;28;20226;-79
2023/03/11 00:36:27;;;;;;;2.85;2.20;;;;;;;5.10;74.84;96964.56;4123549;28;20211;-78
2023/03/11 00:38:30;;;;;;;1.67;1.33;;;;;;;5.11;75.13;96963.66;4136289;28;20214;-78
2023/03/11 00:40:35;;;;;;;2.20;1.50;;;;;;;5.08;75.29;96969.00;4124078;28;20235;-78
2023/03/11 00:42:40;;;;;;;1.92;1.50;;;;;;;5.03;75.89;96953.00;4126686;28;20296;-79
2023/03/11 00:44:45;;;;;;;1.95;1.50;;;;;;;5.03;75.42;96960.75;4115111;28;20206;-78
2023/03/11 00:46:48;;;;;;;1.77;1.67;;;;;;;5.00;76.52;96971.28;4118381;28;20605;-78
2023/03/11 00:48:51;;;;;;;2.00;1.58;;;;;;;5.02;76.70;96990.94;4119037;28;20564;-78
2023/03/11 00:50:54;;;;;;;1.90;1.63;;;;;;;5.00;76.16;96990.16;4125310;28;20288;-78
2023/03/11 00:52:58;;;;;;;1.80;1.42;;;;;;;5.03;76.77;96994.31;4131475;28;20204;-79
2023/03/11 00:55:01;;;;;;;2.85;1.77;;;;;;;5.00;76.67;96990.16;4119773;28;20216;-79
2023/03/11 00:57:05;;;;;;;2.42;1.67;;;;;;;4.97;76.73;96994.72;4135254;28;20270;-78
2023/03/11 00:59:10;;;;;;;2.03;1.45;;;;;;;4.94;77.23;96993.16;4109137;28;21039;-78
2023/03/11 01:01:15;;;;;;;3.35;1.70;;;;;;;4.93;78.02;97001.00;4119039;28;20229;-79
2023/03/11 01:03:19;;;;;;;2.30;1.70;;;;;;;4.92;78.56;96994.19;4128294;28;20235;-79
2023/03/11 01:05:24;;;;;;;2.10;1.70;;;;;;;4.95;78.31;97010.31;4139884;28;20282;-79
2023/03/11 01:07:27;;;;;;;2.53;1.75;;;;;;;4.93;78.39;96996.69;4108394;28;20672;-79
2023/03/11 01:09:30;;;;;;;2.17;1.88;;;;;;;4.93;77.59;97026.81;4124167;28;20204;-79
2023/03/11 01:11:33;;;;;;;1.75;1.60;;;;;;;4.93;77.12;97011.31;4124799;28;21654;-79
2023/03/11 01:13:36;;;;;;;1.70;1.25;;;;;;;4.90;76.13;97025.28;4125927;28;20559;-79
2023/03/11 01:15:41;;;;;;;2.55;1.10;;;;;;;4.93;75.99;97001.84;4109049;28;20571;-78
2023/03/11 01:17:44;;;;;;;1.95;1.10;;;;;;;4.93;75.01;97021.66;4130088;28;20222;-79
2023/03/11 01:19:47;;;;;;;1.20;1.00;;;;;;;4.89;74.15;96990.03;4126083;28;20235;-79
2023/03/11 01:21:50;;;;;;;1.50;0.80;;;;;;;4.83;72.30;97010.28;4123368;28;20287;-79
2023/03/11 01:23:53;;;;;;;1.75;1.00;;;;;;;4.75;71.90;96995.25;4140262;28;20256;-79
2023/03/11 01:25:56;;;;;;;3.38;1.00;;;;;;;4.68;71.48;97006.88;4134904;28;20658;-79
2023/03/11 01:28:01;;;;;;;1.33;0.88;;;;;;;4.69;71.43;97013.72;4123419;28;20212;-78
2023/03/11 01:30:06;;;;;;;1.10;0.82;;;;;;;4.66;70.62;97023.41;4112973;28;20346;-79
2023/03/11 01:32:11;;;;;;;1.75;0.73;;;;;;;4.70;71.39;97025.69;4112266;28;20212;-79
2023/03/11 01:34:14;;;;;;;1.00;0.70;;;;;;;4.69;69.11;97024.03;4125600;28;20204;-78
2023/03/11 01:36:17;;;;;;;1.77;0.90;;;;;;;4.64;69.88;97024.41;4141118;28;20303;-79
2023/03/11 01:38:20;;;;;;;1.23;0.80;;;;;;;4.64;70.24;97034.75;4141658;28;20302;-79
2023/03/11 01:40:27;;;;;;;1.98;0.80;;;;;;;4.53;69.02;97016.53;4122075;28;20613;-79
2023/03/11 01:42:31;;;;;;;1.55;1.05;;;;;;;4.51;68.73;97039.84;4129693;28;20255;-78
2023/03/11 01:44:34;;;;;;;1.27;0.80;;;;;;;4.48;70.43;97040.03;4118824;28;20215;-79
2023/03/11 01:47:16;;;;;;;2.58;0.90;;;;;;;4.51;69.68;97047.59;4127083;28;20211;-79
2023/03/11 01:49:21;;;;;;;2.17;0.70;;;;;;;4.47;70.09;97028.03;4122544;28;20718;-79
2023/03/11 01:51:27;;;;;;;1.27;0.70;;;;;;;4.39;69.43;97040.59;4120178;28;20208;-79
2023/03/11 01:53:30;;;;;;;1.95;0.88;;;;;;;4.37;69.82;97029.50;4124367;28;22468;-79
2023/03/11 01:55:34;;;;;;;1.83;0.82;;;;;;;4.33;69.11;97042.69;4107538;28;20205;-79
2023/03/11 01:57:38;;;;;;;1.85;0.90;;;;;;;4.28;69.71;97032.69;4123891;28;20200;-79
2023/03/11 01:59:44;;;;;;;1.13;0.73;;;;;;;4.23;68.66;97019.22;4127759;28;20212;-78
2023/03/11 02:01:52;;;;;;;3.92;0.90;;;;;;;4.32;68.33;97028.97;4119486;28;20707;-78
2023/03/11 02:03:56;;;;;;;2.83;0.80;;;;;;;4.21;68.42;97021.06;4120356;28;20239;-79
2023/03/11 02:06:03;;;;;;;2.50;0.80;;;;;;;4.22;68.88;97033.06;4127189;28;20203;-79
2023/03/11 02:08:07;;;;;;;2.50;0.80;;;;;;;4.20;68.32;97033.25;4110021;28;20216;-79
2023/03/11 02:10:12;;;;;;;2.22;0.70;;;;;;;4.20;69.11;97034.88;4119378;28;20209;-79
2023/03/11 02:12:15;;;;;;;1.30;0.80;;;;;;;4.23;68.91;97047.59;4124091;28;20231;-79
2023/03/11 02:14:22;;;;;;;1.48;0.60;;;;;;;4.27;69.69;97045.69;4105000;28;20220;-79
2023/03/11 02:16:27;;;;;;;1.70;0.88;;;;;;;4.29;68.90;97049.81;4118876;28;20215;-79
2023/03/11 02:18:31;;;;;;;1.95;0.77;;;;;;;4.29;69.09;97054.97;4119490;28;20303;-78
2023/03/11 02:20:40;;;;;;;2.63;0.90;;;;;;;4.27;69.32;97066.31;4121909;28;20259;-78
2023/03/11 02:22:48;;;;;;;2.83;0.80;;;;;;;4.23;69.45;97070.81;4111252;28;20876;-79
2023/03/11 02:24:57;;;;;;;2.80;0.90;;;;;;;4.28;68.56;97070.53;4119838;28;20204;-78
2023/03/11 02:27:06;;;;;;;2.28;0.70;;;;;;;4.19;69.25;97067.69;4136509;28;20239;-79
2023/03/11 02:29:10;;;;;;;2.75;0.85;;;;;;;4.18;67.91;97068.59;4138336;28;20208;-78
2023/03/11 02:31:14;;;;;;;3.35;0.70;;;;;;;4.12;68.80;97074.13;4105568;28;20217;-78
2023/03/11 02:33:18;;;;;;;1.50;0.80;;;;;;;4.08;69.61;97072.66;4120642;28;20652;-78
2023/03/11 02:35:24;;;;;;;1.92;0.85;;;;;;;4.05;69.03;97065.09;4121987;28;20225;-78
2023/03/11 02:37:29;;;;;;;4.68;0.88;;;;;;;4.06;69.08;97056.41;4102689;28;20634;-78
2023/03/11 02:39:40;;;;;;;1.98;1.00;;;;;;;4.04;69.10;97069.41;4118825;28;20342;-78
2023/03/11 02:41:47;;;;;;;1.60;0.70;;;;;;;4.01;70.17;97061.84;4134246;28;20211;-78
2023/03/11 02:43:51;;;;;;;1.85;0.90;;;;;;;3.98;70.97;97054.28;4120123;28;20331;-78
2023/03/11 02:45:56;;;;;;;1.35;0.82;;;;;;;3.96;70.20;97045.84;4102058;28;20243;-78
2023/03/11 02:47:59;;;;;;;2.63;1.00;;;;;;;3.91;70.02;97047.88;4103914;28;20261;-78
2023/03/11 02:50:05;;;;;;;1.25;0.82;;;;;;;3.93;70.61;97045.19;4122400;28;20306;-78
2023/03/11 02:52:08;;;;;;;1.10;0.82;;;;;;;3.88;71.05;97042.88;4138711;28;20649;-78
2023/03/11 02:54:12;;;;;;;1.23;0.85;;;;;;;3.85;71.04;97053.38;4129542;28;20324;-78
2023/03/11 02:56:15;;;;;;;1.70;1.10;;;;;;;3.85;71.12;97052.56;4107116;28;20208;-78
2023/03/11 02:58:18;;;;;;;1.92;0.90;;;;;;;3.83;70.84;97068.13;4122638;28;20201;-78
2023/03/11 03:00:23;;;;;;;1.70;0.80;;;;;;;3.81;71.32;97059.63;4108828;28;20222;-78
2023/03/11 03:02:37;;;;;;;3.22;1.00;;;;;;;3.80;70.26;97072.59;4125237;28;20223;-78
2023/03/11 03:04:40;;;;;;;2.72;1.10;;;;;;;3.74;70.18;97081.53;4108858;28;20233;-78
2023/03/11 03:06:44;;;;;;;1.50;0.88;;;;;;;3.75;71.14;97074.63;4105863;28;20239;-78
2023/03/11 03:08:47;;;;;;;2.42;1.00;;;;;;;3.73;71.21;97082.44;4135271;28;20255;-78
2023/03/11 03:10:50;;;;;;;2.45;0.93;;;;;;;3.74;70.81;97080.69;4118967;28;20216;-78
2023/03/11 03:12:53;;;;;;;1.30;0.90;;;;;;;3.73;71.46;97082.44;4139526;28;20208;-78
2023/03/11 03:14:56;;;;;;;4.03;1.30;;;;;;;3.71;70.97;97078.28;4105043;28;20209;-78
2023/03/11 03:17:01;;;;;;;0.90;0.80;;;;;;;3.67;71.25;97076.81;4127205;28;20215;-78
2023/03/11 03:19:05;;;;;;;1.40;0.77;;;;;;;3.64;71.22;97074.44;4122446;28;20307;-78
2023/03/11 03:21:08;;;;;;;7.22;1.10;;;;;;;3.64;70.69;97071.84;4108575;28;20426;-78
2023/03/11 03:23:11;;;;;;;3.78;1.20;;;;;;;3.59;70.67;97080.75;4124129;28;20243;-78
2023/03/11 03:25:14;;;;;;;3.47;1.00;;;;;;;3.54;71.26;97086.16;4119691;28;20216;-78
2023/03/11 03:27:17;;;;;;;1.30;0.90;;;;;;;3.54;70.87;97088.75;4110131;28;20669;-78
2023/03/11 03:29:21;;;;;;;2.13;0.98;;;;;;;3.52;71.46;97093.16;4131633;28;21290;-78
2023/03/11 03:31:25;;;;;;;4.00;1.30;;;;;;;3.51;71.53;97088.09;4118636;28;20294;-78
2023/03/11 03:33:29;;;;;;;2.55;1.00;;;;;;;3.55;71.41;97095.56;4109990;28;20785;-78
2023/03/11 03:35:33;;;;;;;2.17;0.90;;;;;;;3.57;71.69;97101.44;4123716;28;20216;-78
2023/03/11 03:37:40;;;;;;;3.47;1.13;;;;;;;3.63;71.19;97114.00;4112787;28;20235;-78
2023/03/11 03:39:44;;;;;;;3.08;1.10;;;;;;;3.66;71.50;97105.25;4118735;28;20211;-78
2023/03/11 03:41:48;;;;;;;2.08;1.30;;;;;;;3.72;71.62;97104.91;4119382;28;20217;-78
2023/03/11 03:43:53;;;;;;;1.90;0.80;;;;;;;3.75;71.85;97108.97;4109016;28;20693;-78
2023/03/11 03:45:57;;;;;;;1.10;0.88;;;;;;;3.80;71.96;97111.28;4105207;28;20236;-78
2023/03/11 03:48:03;;;;;;;2.70;1.50;;;;;;;3.84;71.88;97112.75;4101048;28;20263;-78
2023/03/11 03:50:12;;;;;;;4.25;2.95;;;;;;;3.87;72.38;97115.16;4108018;28;20212;-78
2023/03/11 03:52:19;;;;;;;4.63;1.20;;;;;;;3.91;72.96;97114.06;4112659;28;20606;-78
2023/03/11 03:54:22;;;;;;;3.45;1.20;;;;;;;3.94;73.33;97119.03;4125568;28;20209;-78
2023/03/11 03:56:25;;;;;;;2.55;1.30;;;;;;;3.93;73.93;97118.22;4107596;28;20204;-78
2023/03/11 03:58:28;;;;;;;3.10;1.17;;;;;;;3.90;74.16;97122.72;4116767;28;20200;-78
2023/03/11 04:00:33;;;;;;;2.53;1.40;;;;;;;3.92;74.20;97132.00;4137883;28;20231;-78
2023/03/11 04:02:37;;;;;;;1.50;1.15;;;;;;;3.93;75.18;97131.09;4107314;28;20658;-78
2023/03/11 04:04:42;;;;;;;3.17;1.50;;;;;;;3.93;75.03;97138.03;4122974;28;20632;-78
2023/03/11 04:06:47;;;;;;;1.60;1.20;;;;;;;3.88;75.23;97140.03;4123293;28;20280;-78
2023/03/11 04:08:51;;;;;;;1.85;1.20;;;;;;;3.86;75.48;97142.72;4117986;28;20196;-78
2023/03/11 04:10:57;;;;;;;2.50;1.10;;;;;;;3.92;75.80;97138.94;4133733;28;20625;-78
2023/03/11 04:13:02;;;;;;;1.60;1.15;;;;;;;3.93;76.46;97138.84;4108505;28;20340;-78
2023/03/11 04:15:07;;;;;;;1.50;1.40;;;;;;;3.94;74.98;97135.34;4120734;28;20234;-78
2023/03/11 04:17:11;;;;;;;2.22;1.30;;;;;;;3.91;76.20;97139.84;4120947;28;20220;-78
2023/03/11 04:19:14;;;;;;;2.30;1.30;;;;;;;3.91;75.82;97138.09;4122044;28;20307;-78
2023/03/11 04:21:18;;;;;;;2.45;1.20;;;;;;;3.91;75.68;97150.16;4113621;28;20216;-78
2023/03/11 04:23:24;;;;;;;1.42;1.10;;;;;;;3.92;74.96;97157.81;4098878;28;20283;-78
2023/03/11 04:25:27;;;;;;;2.42;1.10;;;;;;;3.92;76.23;97157.81;4108535;28;20318;-79
2023/03/11 04:27:32;;;;;;;2.10;1.05;;;;;;;3.95;74.98;97159.38;4106921;28;20664;-78
2023/03/11 04:29:38;;;;;;;1.92;1.00;;;;;;;3.97;75.87;97165.28;4122809;28;20479;-78
2023/03/11 04:31:41;;;;;;;4.72;1.85;;;;;;;3.98;75.98;97165.19;4127177;28;20240;-78
2023/03/11 04:33:44;;;;;;;5.40;1.48;;;;;;;3.98;75.71;97166.94;4121860;28;20212;-78
2023/03/11 04:35:48;;;;;;;3.47;1.40;;;;;;;4.03;75.58;97164.91;4118217;28;20676;-78
2023/03/11 04:37:53;;;;;;;2.85;1.23;;;;;;;4.00;75.80;97158.22;4136401;28;20222;-78
2023/03/11 04:39:58;;;;;;;5.00;1.30;;;;;;;4.02;76.20;97153.78;4124288;28;20204;-78
2023/03/11 04:42:01;;;;;;;4.13;1.53;;;;;;;4.09;75.16;97156.84;4120930;28;20853;-78
2023/03/11 04:44:06;;;;;;;6.30;1.50;;;;;;;4.14;74.92;97160.00;4124357;28;20690;-78
2023/03/11 04:46:10;;;;;;;3.15;1.48;;;;;;;4.14;74.25;97160.00;4114369;28;20204;-78
2023/03/11 04:48:17;;;;;;;2.10;1.25;;;;;;;4.12;74.33;97154.94;4136290;28;20205;-78
2023/03/11 04:50:22;;;;;;;3.10;1.33;;;;;;;4.14;74.39;97149.69;4132832;28;20600;-78
2023/03/11 04:52:25;;;;;;;2.78;1.33;;;;;;;4.10;73.93;97146.44;4123713;28;20291;-78
2023/03/11 04:54:29;;;;;;;2.55;1.00;;;;;;;4.07;74.01;97150.94;4122868;28;20684;-78
2023/03/11 04:56:34;;;;;;;3.45;1.40;;;;;;;4.04;73.79;97146.78;4108986;28;20212;-78
2023/03/11 04:58:38;;;;;;;2.50;1.27;;;;;;;4.01;74.27;97153.88;4108210;28;20881;-78
2023/03/11 05:00:42;;;;;;;4.32;1.20;;;;;;;3.99;74.18;97168.63;4131702;28;20211;-78
2023/03/11 05:02:47;;;;;;;3.80;1.50;;;;;;;3.98;73.03;97166.94;4122582;28;20204;-78
2023/03/11 05:04:50;;;;;;;5.03;1.58;;;;;;;3.95;73.50;97155.03;4114199;28;20228;-78
2023/03/11 05:06:54;;;;;;;1.73;1.20;;;;;;;3.94;73.88;97160.28;4123032;28;20216;-78
2023/03/11 05:08:59;;;;;;;3.40;1.10;;;;;;;3.87;73.76;97154.66;4123646;28;20208;-78
2023/03/11 05:11:04;;;;;;;4.80;2.22;;;;;;;3.86;74.00;97154.75;4125071;28;20724;-78
2023/03/11 05:13:11;;;;;;;2.03;1.15;;;;;;;3.84;74.59;97154.84;4127689;28;20212;-78
2023/03/11 05:15:15;;;;;;;4.85;1.20;;;;;;;3.77;74.02;97152.69;4106556;28;20263;-78
2023/03/11 05:17:19;;;;;;;4.22;1.55;;;;;;;3.74;73.91;97158.03;4117199;28;20695;-78
2023/03/11 05:19:33;;;;;;;4.07;1.15;;;;;;;3.70;74.04;97161.72;4130021;28;20240;-78
2023/03/11 05:21:43;;;;;;;2.13;1.13;;;;;;;3.79;73.79;97167.16;4122289;28;20212;-78
2023/03/11 05:23:47;;;;;;;4.97;1.40;;;;;;;3.70;73.48;97177.19;4125164;28;20269;-78
2023/03/11 05:25:50;;;;;;;2.90;1.40;;;;;;;3.65;73.84;97176.56;4109221;28;20228;-78
2023/03/11 05:27:53;;;;;;;3.70;1.08;;;;;;;3.63;73.65;97173.28;4127708;28;20232;-78
2023/03/11 05:29:57;;;;;;;4.57;1.40;;;;;;;3.61;74.61;97177.69;4126348;28;20298;-78
2023/03/11 05:32:02;;;;;;;3.50;1.25;;;;;;;3.61;74.71;97187.16;4119587;28;20259;-78
2023/03/11 05:34:06;;;;;;;3.10;1.40;;;;;;;3.56;74.00;97179.66;4130546;28;20207;-78
2023/03/11 05:36:10;;;;;;;1.90;1.10;;;;;;;3.55;74.60;97187.47;4102090;28;20208;-78
2023/03/11 05:38:16;;;;;;;4.60;1.40;;;;;;;3.54;75.35;97176.34;4118250;28;20591;-78
2023/03/11 05:40:20;;;;;;;2.92;1.35;;;;;;;3.54;74.67;97176.34;4136373;28;20208;-78
2023/03/11 05:42:24;;;;;;;4.97;1.60;;;;;;;3.52;75.10;97178.19;4121787;28;20739;-78
2023/03/11 05:44:30;;;;;;;3.45;1.40;;;;;;;3.47;75.22;97174.19;4113679;28;20586;-78
2023/03/11 05:46:34;;;;;;;2.80;1.40;;;;;;;3.46;75.79;97178.53;4117788;28;20212;-78
2023/03/11 05:48:40;;;;;;;2.03;1.05;;;;;;;3.43;75.73;97183.84;4139937;28;20218;-78
2023/03/11 05:50:43;;;;;;;3.58;1.73;;;;;;;3.43;75.41;97183.84;4132002;28;20266;-78
2023/03/11 05:52:47;;;;;;;2.15;1.50;;;;;;;3.42;76.12;97176.22;4124456;28;21043;-78
2023/03/11 05:54:51;;;;;;;4.18;1.55;;;;;;;3.40;75.60;97194.31;4120940;28;20203;-78
2023/03/11 05:56:57;;;;;;;5.95;1.38;;;;;;;3.39;75.86;97197.81;4118749;28;20292;-78
2023/03/11 05:59:01;;;;;;;3.88;1.60;;;;;;;3.39;75.86;97207.28;4120620;28;20211;-78
2023/03/11 06:01:09;;;;;;;3.47;1.90;;;;;;;3.41;76.94;97220.91;4127735;28;20691;-78
2023/03/11 06:03:13;;;;;;;2.13;1.27;;;;;;;3.44;76.66;97213.88;4120477;28;20204;-78
2023/03/11 06:05:17;;;;;;;3.05;1.38;;;;;;;3.48;76.76;97217.09;4128616;28;20228;-78
2023/03/11 06:07:24;;;;;;;2.22;1.40;;;;;;;3.50;77.06;97215.25;4122907;28;20218;-78
2023/03/11 06:09:28;;;;;;;2.22;1.40;;;;;;;3.52;77.23;97222.00;4127016;28;20208;-78
2023/03/11 06:11:31;;;;;;;4.90;1.88;;;;;;;3.54;77.30;97220.16;4125692;28;20201;-78
2023/03/11 06:13:35;;;;;;;2.47;1.50;;;;;;;3.55;77.13;97215.84;4110594;28;20212;-78
2023/03/11 06:15:38;;;;;;;3.00;1.80;;;;;;;3.53;77.42;97215.91;4109867;28;20197;-78
2023/03/11 06:17:42;;;;;;;3.50;2.33;;;;;;;3.54;77.04;97217.59;4121834;28;20267;-78
2023/03/11 06:19:46;;;;;;;3.78;1.63;;;;;;;3.54;77.31;97221.91;4107744;28;20307;-78
2023/03/11 06:21:50;;;;;;;4.65;1.70;;;;;;;3.55;76.99;97221.84;4123286;28;20286;-78
2023/03/11 06:23:53;;;;;;;5.10;1.70;;;;;;;3.56;76.82;97232.97;4119307;28;20295;-78
2023/03/11 06:25:57;;;;;;;3.33;1.80;;;;;;;3.58;77.38;97231.13;4110202;28;20335;-78
2023/03/11 06:28:01;;;;;;;5.38;2.13;;;;;;;3.66;77.02;97231.56;4126372;28;20208;-78
2023/03/11 06:30:05;;;;;;;4.55;1.70;;;;;;;3.65;77.52;97229.88;4125373;28;20208;-78
2023/03/11 06:32:15;;;;;;;6.00;1.85;;;;;;;3.66;77.39;97237.53;4136014;28;20227;-78
2023/03/11 06:34:20;;;;;;;6.60;1.75;;;;;;;3.69;77.80;97242.53;4123349;28;20222;-78
2023/03/11 06:36:26;;;;;;;4.72;1.90;;;;;;;3.74;77.15;97235.34;4125835;28;20660;-78
2023/03/11 06:38:29;;;;;;;3.05;1.63;;;;;;;3.79;77.73;97243.69;4134109;28;20211;-78
2023/03/11 06:40:32;;;;;;;4.30;1.75;;;;;;;3.81;77.48;97245.25;4130707;28;20921;-78
2023/03/11 06:42:36;;;;;;;5.05;2.20;;;;;;;3.82;77.45;97236.59;4108343;28;20217;-78
2023/03/11 06:44:40;;;;;;;4.22;2.20;;;;;;;3.83;76.59;97242.59;4136453;28;20224;-78
2023/03/11 06:46:43;;;;;;;3.95;2.08;;;;;;;3.82;76.82;97249.50;4120285;28;20208;-78
2023/03/11 06:48:50;;;;;;;4.07;2.15;;;;;;;3.87;78.19;97260.38;4115280;28;20823;-78
2023/03/11 06:50:55;;;;;;;4.82;2.28;;;;;;;3.91;77.20;97268.75;4126040;28;20707;-78
2023/03/11 06:53:01;;;;;;;4.38;1.50;;;;;;;3.96;76.38;97272.75;4132861;28;20674;-78
2023/03/11 06:55:06;;;;;;;6.43;1.85;;;;;;;3.95;77.72;97270.25;4121141;28;20256;-78
2023/03/11 06:57:11;;;;;;;6.50;3.40;;;;;;;4.00;77.46;97273.41;4113967;28;20215;-78
2023/03/11 06:59:15;;;;;;;3.58;3.25;;;;;;;4.05;78.09;97277.41;4112745;28;20209;-78
2023/03/11 07:01:21;;;;;;;4.32;2.38;;;;;;;4.10;77.12;97272.81;4101025;28;20223;-78
2023/03/11 07:03:24;;;;;;;3.95;2.08;;;;;;;4.12;75.98;97272.72;4115590;28;20205;-78
2023/03/11 07:05:27;;;;;;;5.22;2.80;;;;;;;4.18;77.69;97277.53;4144572;28;20223;-78
2023/03/11 07:07:37;;;;;;;6.32;2.30;;;;;;;4.22;76.62;97280.72;4123765;28;20212;-78
2023/03/11 07:09:42;;;;;;;6.13;2.88;;;;;;;4.21;75.39;97291.94;4107510;28;20296;-78
2023/03/11 07:11:48;;;;;;;4.97;2.22;;;;;;;4.21;75.91;97293.69;4121270;28;20212;-78
2023/03/11 07:13:58;;;;;;;4.50;2.65;;;;;;;4.24;76.54;97304.66;4119797;28;20239;-78
2023/03/11 07:16:06;;;;;;;3.85;2.17;;;;;;;4.31;76.82;97305.97;4122370;28;20228;-78
2023/03/11 07:18:09;;;;;;;5.32;1.83;;;;;;;4.39;75.80;97308.13;4135892;28;20244;-78
2023/03/11 07:20:13;;;;;;;4.45;1.67;;;;;;;4.45;74.94;97313.78;4130427;28;20845;-78
2023/03/11 07:22:18;;;;;;;6.25;1.98;;;;;;;4.51;75.91;97318.59;4121480;28;20221;-78
2023/03/11 07:24:21;;;;;;;4.40;2.33;;;;;;;4.49;75.43;97323.00;4137680;28;20204;-78
2023/03/11 07:26:28;;;;;;;5.32;1.70;;;;;;;4.53;75.51;97316.75;4124499;28;20228;-78
2023/03/11 07:28:31;;;;;;;4.30;2.50;;;;;;;4.58;76.03;97319.06;4117730;28;20201;-78
2023/03/11 07:30:34;;;;;;;5.32;2.45;;;;;;;4.64;75.48;97331.63;4123497;28;20208;-78
2023/03/11 07:32:38;;;;;;;7.18;2.30;;;;;;;4.68;75.53;97328.78;4100860;28;20213;-78
2023/03/11 07:34:41;;;;;;;5.03;2.00;;;;;;;4.71;75.00;97336.34;4133937;28;20215;-78
2023/03/11 07:36:44;;;;;;;5.30;2.05;;;;;;;4.73;73.95;97335.34;4131356;28;20266;-79
2023/03/11 07:38:48;;;;;;;3.95;1.92;;;;;;;4.72;74.15;97340.59;4120665;28;20950;-78
2023/03/11 07:40:58;;;;;;;8.40;2.30;;;;;;;4.70;73.79;97334.69;4122053;28;20609;-78
2023/03/11 07:43:02;;;;;;;4.22;2.17;;;;;;;4.73;74.96;97344.84;4114669;28;20215;-78
2023/03/11 07:45:09;;;;;;;3.65;2.90;;;;;;;4.73;74.66;97340.50;4121823;28;20228;-78
2023/03/11 07:47:12;;;;;;;7.95;2.58;;;;;;;4.78;74.69;97345.41;4121651;28;20207;-78
2023/03/11 07:49:16;;;;;;;3.08;2.17;;;;;;;4.87;73.44;97350.88;4127758;28;20226;-81
2023/03/11 07:51:21;;;;;;;3.25;1.85;;;;;;;4.95;74.28;97356.44;4116830;28;20696;-78
2023/03/11 07:53:30;;;;;;;6.97;2.17;;;;;;;5.03;73.88;97356.81;4108722;28;20214;-78
2023/03/11 07:55:33;;;;;;;2.58;2.00;;;;;;;5.12;73.70;97358.84;4119293;28;20218;-79
2023/03/11 07:57:36;;;;;;;4.72;2.20;;;;;;;5.16;72.93;97365.50;4120763;28;20224;-78
2023/03/11 07:59:41;;;;;;;5.97;3.92;;;;;;;5.28;73.07;97365.63;4132543;28;20606;-78
2023/03/11 08:01:46;;;;;;;5.00;2.83;;;;;;;5.38;73.19;97369.34;4120475;28;20211;-78
2023/03/11 08:03:51;;;;;;;4.82;2.13;;;;;;;5.50;73.10;97368.56;4114124;28;20276;-77
2023/03/11 08:05:55;;;;;;;4.60;2.42;;;;;;;5.70;73.48;97368.22;4130863;28;20230;-77
2023/03/11 08:07:58;;;;;;;4.70;1.88;;;;;;;5.80;72.49;97371.94;4116344;28;20263;-78
2023/03/11 08:10:01;;;;;;;4.35;1.95;;;;;;;6.28;72.62;97387.84;4113699;28;20630;-78
2023/03/11 08:12:05;;;;;;;3.78;2.03;;;;;;;6.76;71.59;97393.31;4132752;28;20207;-79
2023/03/11 08:14:08;;;;;;;3.80;3.00;;;;;;;6.85;70.18;97405.69;4101488;28;20217;-78
2023/03/11 08:16:14;;;;;;;4.55;2.00;;;;;;;6.86;68.93;97402.16;4114023;28;20484;-77
2023/03/11 08:18:17;;;;;;;5.05;2.20;;;;;;;6.89;69.56;97400.19;4124416;28;20236;-77
2023/03/11 08:20:20;;;;;;;4.63;1.90;;;;;;;6.90;69.08;97401.88;4112653;28;20208;-77
2023/03/11 08:22:24;;;;;;;4.20;2.20;;;;;;;7.03;68.42;97411.31;4110436;28;20681;-77
2023/03/11 08:24:27;;;;;;;5.10;2.47;;;;;;;7.11;69.26;97416.84;4130522;28;20263;-77
2023/03/11 08:26:31;;;;;;;5.45;1.60;;;;;;;7.18;66.14;97414.69;4105077;28;20818;-78
2023/03/11 08:28:34;;;;;;;4.85;1.50;;;;;;;7.10;68.28;97412.59;4125895;28;20259;-76
2023/03/11 08:30:37;;;;;;;3.47;2.20;;;;;;;7.03;66.80;97414.84;4121116;28;20202;-79
2023/03/11 08:32:44;;;;;;;5.13;1.92;;;;;;;7.07;67.41;97411.97;4138026;28;20223;-77
2023/03/11 08:34:48;;;;;;;4.18;1.75;;;;;;;7.00;67.57;97426.25;4122344;28;20208;-77
2023/03/11 08:36:51;;;;;;;4.07;1.50;;;;;;;6.99;67.69;97414.25;4125366;28;20238;-78
2023/03/11 08:38:54;;;;;;;2.83;1.70;;;;;;;7.17;68.26;97423.38;4100919;28;20232;-78
2023/03/11 08:40:57;;;;;;;3.13;1.80;;;;;;;7.39;67.76;97415.84;4123934;28;20239;-79
2023/03/11 08:43:00;;;;;;;8.70;1.80;;;;;;;7.69;67.86;97432.78;4143290;28;20210;-79
2023/03/11 08:45:04;;;;;;;6.63;2.28;;;;;;;7.89;66.20;97434.88;4119471;28;20321;-78
2023/03/11 08:47:08;;;;;;;4.45;2.55;;;;;;;8.15;65.77;97446.00;4119797;28;20233;-77
2023/03/11 08:49:12;;;;;;;5.47;1.50;;;;;;;8.00;65.38;97438.41;4115391;28;20235;-76
2023/03/11 08:51:16;;;;;;;3.88;1.70;;;;;;;8.31;65.43;97450.94;4121261;28;20228;-77
2023/03/11 08:53:19;;;;;;;5.07;2.30;;;;;;;8.69;65.69;97455.94;4114371;28;20663;-77
2023/03/11 08:55:26;;;;;;;3.55;1.83;;;;;;;8.59;64.67;97452.31;4117733;28;20359;-77
2023/03/11 08:57:29;;;;;;;4.95;2.30;;;;;;;8.18;63.17;97439.75;4135800;28;20217;-77
2023/03/11 08:59:32;;;;;;;5.53;1.65;;;;;;;7.86;63.92;97435.88;4112556;28;20263;-77
2023/03/11 09:01:35;;;;;;;3.55;1.73;;;;;;;7.74;63.56;97433.31;4121458;28;20292;-77
2023/03/11 09:03:39;;;;;;;4.07;1.98;;;;;;;7.56;62.66;97432.78;4116411;28;20243;-78
2023/03/11 09:05:43;;;;;;;4.75;1.73;;;;;;;7.51;64.59;97431.44;4105189;28;20806;-78
2023/03/11 09:07:47;;;;;;;4.22;1.67;;;;;;;7.47;63.14;97437.75;4117334;28;20295;-79
2023/03/11 09:09:50;;;;;;;6.90;2.10;;;;;;;7.38;64.06;97434.94;4096797;28;20304;-76
2023/03/11 09:11:53;;;;;;;7.65;2.03;;;;;;;7.22;64.09;97427.34;4115826;28;20327;-77
2023/03/11 09:13:56;;;;;;;4.97;1.60;;;;;;;7.20;65.02;97424.03;4116867;28;20296;-77
2023/03/11 09:15:59;;;;;;;5.20;2.03;;;;;;;7.25;63.57;97416.78;4116533;28;21118;-77
2023/03/11 09:18:03;;;;;;;5.15;1.50;;;;;;;7.24;64.76;97427.25;4123819;28;20210;-77
2023/03/11 09:20:07;;;;;;;4.05;1.60;;;;;;;7.21;64.09;97425.66;4141572;28;20233;-77
2023/03/11 09:22:12;;;;;;;1.98;1.65;;;;;;;7.18;64.33;97431.06;4122874;28;20224;-77
2023/03/11 09:24:15;;;;;;;5.07;1.80;;;;;;;7.13;65.45;97420.16;4107957;28;20237;-77
2023/03/11 09:26:18;;;;;;;3.80;1.75;;;;;;;7.19;64.92;97427.53;4126553;28;20234;-77
2023/03/11 09:28:21;;;;;;;9.68;2.67;;;;;;;7.28;64.75;97439.91;4107437;28;20999;-77
2023/03/11 09:30:25;;;;;;;7.97;2.00;;;;;;;7.18;65.02;97431.06;4123607;28;20807;-77
2023/03/11 09:32:28;;;;;;;3.75;1.90;;;;;;;7.05;64.55;97430.22;4141554;28;20205;-77
2023/03/11 09:34:31;;;;;;;6.68;2.28;;;;;;;7.04;64.12;97431.13;4140943;28;20204;-77
2023/03/11 09:36:34;;;;;;;3.50;1.73;;;;;;;7.02;64.91;97433.91;4129109;28;20225;-77
2023/03/11 09:38:39;;;;;;;3.67;1.63;;;;;;;6.99;65.04;97440.16;4126433;28;20702;-77
2023/03/11 09:40:49;;;;;;;5.00;2.10;;;;;;;6.98;64.80;97442.84;4104439;28;20215;-79
2023/03/11 09:42:57;;;;;;;6.70;2.08;;;;;;;7.04;64.75;97446.69;4140940;28;20218;-77
2023/03/11 09:45:03;;;;;;;2.67;1.40;;;;;;;7.06;66.07;97450.00;4123217;28;20259;-77
2023/03/11 09:47:31;;;;;;;3.72;1.60;;;;;;;6.97;64.52;97442.00;4113444;28;20225;-77
2023/03/11 09:49:47;;;;;;;7.15;2.40;;;;;;;7.02;65.10;97439.09;4120921;28;20209;-77
2023/03/11 09:51:55;;;;;;;4.68;2.08;;;;;;;7.05;64.81;97443.19;4149076;28;20204;-78
2023/03/11 09:54:04;;;;;;;5.10;1.70;;;;;;;7.12;65.63;97446.19;4124541;28;20216;-77